Time;durP1;ratioP1;P1;durP2;ratioP2;P2;SDS_P1;SDS_P2;PMS_P1;PMS_P2;Temp;Humidity;BMP_temperature;BMP_pressure;BME280_temperature;BME280_humidity;BME280_pressure;Samples;Min_cycle;Max_cycle;Signal;HPM_P1;HPM_P2
2021/03/12 00:00:26;;;;;;;2.58;1.88;;;20.50;50.10;;;;;;5104788;28;20035;-37
2021/03/12 00:02:52;;;;;;;2.70;2.30;;;20.50;50.00;;;;;;5087578;28;20036;-37
2021/03/12 00:05:19;;;;;;;3.15;2.45;;;20.50;50.00;;;;;;5084280;28;20039;-37
2021/03/12 00:07:45;;;;;;;2.80;2.30;;;20.50;50.00;;;;;;5084476;28;20481;-37
2021/03/12 00:10:16;;;;;;;2.50;2.30;;;20.50;50.00;;;;;;5084169;28;20044;-36
2021/03/12 00:12:43;;;;;;;2.50;2.30;;;20.40;50.10;;;;;;5065890;28;20035;-37
2021/03/12 00:15:12;;;;;;;2.50;2.30;;;20.40;50.30;;;;;;5084256;28;20552;-37
2021/03/12 00:17:38;;;;;;;2.72;2.30;;;20.40;50.10;;;;;;5084250;28;20121;-37
2021/03/12 00:20:12;;;;;;;3.00;2.47;;;20.40;50.10;;;;;;5084292;28;20040;-37
2021/03/12 00:22:39;;;;;;;2.53;2.33;;;20.40;50.10;;;;;;5084082;28;20033;-37
2021/03/12 00:25:10;;;;;;;2.55;2.20;;;20.40;50.10;;;;;;5084165;28;20071;-37
2021/03/12 00:27:37;;;;;;;3.25;2.75;;;20.40;50.10;;;;;;5083911;28;20028;-37
2021/03/12 00:30:04;;;;;;;2.67;2.47;;;20.30;50.00;;;;;;5083655;28;20681;-37
2021/03/12 00:32:31;;;;;;;3.00;2.70;;;20.30;50.10;;;;;;5069856;28;20025;-37
2021/03/12 00:34:57;;;;;;;3.53;2.92;;;20.30;50.20;;;;;;5046048;28;20493;-37
2021/03/12 00:37:23;;;;;;;3.10;2.77;;;20.30;50.10;;;;;;5064035;28;20029;-37
2021/03/12 00:39:49;;;;;;;3.25;2.78;;;20.30;50.10;;;;;;5063405;28;20619;-37
2021/03/12 00:42:16;;;;;;;4.43;2.90;;;20.30;50.20;;;;;;5063286;28;20055;-37
2021/03/12 00:44:42;;;;;;;3.63;2.72;;;20.30;50.30;;;;;;5069893;28;20032;-37
2021/03/12 00:47:08;;;;;;;3.90;2.95;;;20.20;50.20;;;;;;5065709;28;20256;-37
2021/03/12 00:49:34;;;;;;;3.15;2.83;;;20.30;50.10;;;;;;5077202;28;20032;-37
2021/03/12 00:52:01;;;;;;;4.15;3.75;;;20.20;50.10;;;;;;5063124;28;20049;-37
2021/03/12 00:54:27;;;;;;;3.95;3.63;;;20.20;50.30;;;;;;5063137;28;20029;-37
2021/03/12 00:56:53;;;;;;;5.57;4.10;;;20.20;50.30;;;;;;5063306;28;20036;-37
2021/03/12 00:59:19;;;;;;;4.78;3.70;;;20.20;50.40;;;;;;5063325;28;20488;-39
2021/03/12 01:01:45;;;;;;;4.30;3.90;;;20.20;50.40;;;;;;5063109;28;20080;-37
2021/03/12 01:04:11;;;;;;;4.65;4.25;;;20.20;50.40;;;;;;5078481;28;20079;-37
2021/03/12 01:06:37;;;;;;;7.40;4.40;;;20.10;50.50;;;;;;5083067;28;20094;-37
2021/03/12 01:09:04;;;;;;;4.30;3.90;;;20.10;50.50;;;;;;5082054;28;20090;-37
2021/03/12 01:11:30;;;;;;;5.30;4.72;;;20.10;50.70;;;;;;5082957;28;20041;-37
2021/03/12 01:13:56;;;;;;;6.10;4.50;;;20.10;50.70;;;;;;5082713;28;20081;-37
2021/03/12 01:16:23;;;;;;;5.70;4.72;;;20.00;50.70;;;;;;5083543;28;20029;-37
2021/03/12 01:18:49;;;;;;;4.90;4.40;;;20.00;50.70;;;;;;5102840;28;20078;-38
2021/03/12 01:21:15;;;;;;;5.35;4.30;;;20.00;50.80;;;;;;5084764;28;20024;-37
2021/03/12 01:23:41;;;;;;;5.30;4.68;;;20.00;50.80;;;;;;5102693;28;20055;-37
2021/03/12 01:26:07;;;;;;;5.38;4.53;;;20.00;50.90;;;;;;5103020;28;20735;-37
2021/03/12 01:28:33;;;;;;;6.03;4.57;;;20.00;50.80;;;;;;5102740;28;20036;-37
2021/03/12 01:30:59;;;;;;;5.00;4.50;;;20.00;50.90;;;;;;5101737;28;20071;-36
2021/03/12 01:33:26;;;;;;;5.43;4.70;;;20.00;50.80;;;;;;5082222;28;20025;-37
2021/03/12 01:35:52;;;;;;;6.93;5.40;;;19.90;50.70;;;;;;5077144;28;20050;-37
2021/03/12 01:38:18;;;;;;;5.43;4.82;;;19.90;50.60;;;;;;5066894;28;20029;-37
2021/03/12 01:40:45;;;;;;;5.07;4.57;;;19.90;50.30;;;;;;5062379;28;20036;-37
2021/03/12 01:43:11;;;;;;;;;;;19.90;50.20;;;;;;5062448;28;20032;-37
2021/03/12 01:45:41;;;;;;;4.95;4.40;;;19.80;50.10;;;;;;5062420;28;19908;-37
2021/03/12 01:48:15;;;;;;;5.97;5.05;;;19.80;50.00;;;;;;5090046;28;20035;-37
2021/03/12 01:50:44;;;;;;;5.97;4.78;;;19.80;50.10;;;;;;5102696;28;20039;-37
2021/03/12 01:53:11;;;;;;;6.57;5.20;;;19.80;50.20;;;;;;5102427;28;20109;-37
2021/03/12 01:55:37;;;;;;;5.30;4.80;;;19.80;50.20;;;;;;5102455;28;20024;-37
2021/03/12 01:58:04;;;;;;;5.82;5.03;;;19.80;50.20;;;;;;5102468;28;20053;-37
2021/03/12 02:00:30;;;;;;;5.67;4.97;;;19.70;50.10;;;;;;5102426;28;20061;-37
2021/03/12 02:02:57;;;;;;;6.70;5.45;;;19.70;50.00;;;;;;5102128;28;20315;-37
2021/03/12 02:05:23;;;;;;;7.85;5.47;;;19.70;50.00;;;;;;5102565;28;20052;-37
2021/03/12 02:07:50;;;;;;;5.38;4.88;;;19.70;50.10;;;;;;5102295;28;20024;-37
2021/03/12 02:10:18;;;;;;;5.95;5.22;;;19.70;50.00;;;;;;5067318;28;20115;-37
2021/03/12 02:13:23;;;;;;;6.13;5.30;;;19.60;50.00;;;;;;5084349;28;20038;-37
2021/03/12 02:16:11;;;;;;;5.85;5.35;;;19.60;49.90;;;;;;5086948;28;20055;-38
2021/03/12 02:18:38;;;;;;;6.75;5.57;;;19.60;50.00;;;;;;5082487;28;20438;-37
2021/03/12 02:21:15;;;;;;;5.80;5.20;;;19.60;50.00;;;;;;5085356;28;20039;-37
2021/03/12 02:24:05;;;;;;;5.70;5.07;;;19.60;50.00;;;;;;5068994;28;20025;-37
2021/03/12 02:26:31;;;;;;;7.30;5.70;;;19.50;50.00;;;;;;5068261;28;20029;-38
2021/03/12 02:29:02;;;;;;;6.43;5.60;;;19.50;50.10;;;;;;5086037;28;20028;-37
2021/03/12 02:31:28;;;;;;;6.35;5.75;;;19.50;50.00;;;;;;5051562;28;20024;-38
2021/03/12 02:33:55;;;;;;;6.68;5.72;;;19.50;50.00;;;;;;5085382;28;20028;-37
2021/03/12 02:36:22;;;;;;;6.25;5.63;;;19.50;50.00;;;;;;5067823;28;20035;-37
2021/03/12 02:38:51;;;;;;;6.97;5.43;;;19.50;50.10;;;;;;5067801;28;20040;-36
2021/03/12 02:41:18;;;;;;;6.00;5.40;;;19.40;50.00;;;;;;5061062;28;20025;-37
2021/03/12 02:43:44;;;;;;;6.87;5.80;;;19.40;50.10;;;;;;5069167;28;20051;-37
2021/03/12 02:46:10;;;;;;;6.28;5.30;;;19.40;50.00;;;;;;5048350;28;20051;-37
2021/03/12 02:48:36;;;;;;;8.00;6.13;;;19.40;50.00;;;;;;5086034;28;20024;-37
2021/03/12 02:51:06;;;;;;;6.70;5.55;;;19.40;50.10;;;;;;5087745;28;20497;-37
2021/03/12 02:53:34;;;;;;;5.93;5.32;;;19.40;50.70;;;;;;5070666;28;20032;-36
2021/03/12 02:56:00;;;;;;;6.82;5.72;;;19.30;50.10;;;;;;5067791;28;20024;-37
2021/03/12 02:58:27;;;;;;;6.73;5.90;;;19.30;50.20;;;;;;5085466;28;20029;-37
2021/03/12 03:00:53;;;;;;;8.02;5.97;;;19.30;50.20;;;;;;5050803;28;20044;-37
2021/03/12 03:03:19;;;;;;;5.90;5.25;;;19.30;50.20;;;;;;5067158;28;20030;-36
2021/03/12 03:05:45;;;;;;;5.63;5.10;;;19.20;50.30;;;;;;5067172;28;20025;-37
2021/03/12 03:08:12;;;;;;;7.00;6.30;;;19.20;50.20;;;;;;5067172;28;20076;-37
2021/03/12 03:10:38;;;;;;;9.75;6.13;;;19.20;50.20;;;;;;5085109;28;20048;-37
2021/03/12 03:13:04;;;;;;;6.95;6.25;;;19.20;50.30;;;;;;5067276;28;20024;-37
2021/03/12 03:15:31;;;;;;;7.05;5.50;;;19.20;50.20;;;;;;5066955;28;20047;-37
2021/03/12 03:17:57;;;;;;;7.15;6.10;;;19.20;50.20;;;;;;5080745;28;20536;-37
2021/03/12 03:20:23;;;;;;;7.40;5.93;;;19.10;50.20;;;;;;5087051;28;20044;-37
2021/03/12 03:22:49;;;;;;;7.73;6.93;;;19.10;50.30;;;;;;5105182;28;20024;-37
2021/03/12 03:25:16;;;;;;;8.13;6.15;;;19.10;50.20;;;;;;5104837;28;20090;-36
2021/03/12 03:27:42;;;;;;;6.22;5.63;;;19.10;50.30;;;;;;5101917;28;20025;-37
2021/03/12 03:30:09;;;;;;;6.90;6.20;;;19.10;50.30;;;;;;5089247;28;20056;-37
2021/03/12 03:32:36;;;;;;;6.70;6.10;;;19.00;50.30;;;;;;5097473;28;20740;-37
2021/03/12 03:35:04;;;;;;;6.78;6.07;;;19.10;50.50;;;;;;5104616;28;20036;-37
2021/03/12 03:37:30;;;;;;;7.95;6.68;;;19.00;50.30;;;;;;5105055;28;20031;-37
2021/03/12 03:39:56;;;;;;;7.95;6.88;;;19.00;50.30;;;;;;5095087;28;20613;-37
2021/03/12 03:42:25;;;;;;;7.43;6.43;;;19.00;50.50;;;;;;5075371;28;20064;-37
2021/03/12 03:44:51;;;;;;;8.48;6.95;;;19.00;50.40;;;;;;5072786;28;20024;-37
2021/03/12 03:47:17;;;;;;;6.88;6.18;;;18.90;50.30;;;;;;5058219;28;20025;-37
2021/03/12 03:49:43;;;;;;;7.53;6.72;;;18.90;50.50;;;;;;5046307;28;20044;-37
2021/03/12 03:52:09;;;;;;;8.23;6.63;;;18.90;50.50;;;;;;5030047;28;20028;-37
2021/03/12 03:54:37;;;;;;;7.43;6.55;;;18.90;50.50;;;;;;5046008;28;20052;-37
2021/03/12 03:57:03;;;;;;;7.72;6.93;;;18.80;50.50;;;;;;5046442;28;20052;-37
2021/03/12 03:59:30;;;;;;;7.45;6.68;;;18.90;50.50;;;;;;5064313;28;20153;-37
2021/03/12 04:01:56;;;;;;;8.68;7.30;;;18.80;50.50;;;;;;5055111;28;20092;-37
2021/03/12 04:04:22;;;;;;;8.57;6.70;;;18.80;50.60;;;;;;5049360;28;20052;-37
2021/03/12 04:06:48;;;;;;;7.40;6.63;;;18.70;50.50;;;;;;5049680;28;20075;-37
2021/03/12 04:09:15;;;;;;;9.75;7.32;;;18.80;50.70;;;;;;5083931;28;20078;-37
2021/03/12 04:11:42;;;;;;;7.35;6.35;;;18.70;50.60;;;;;;5084002;28;20016;-37
2021/03/12 04:14:08;;;;;;;8.75;7.30;;;18.70;50.60;;;;;;5084076;28;20143;-37
2021/03/12 04:16:34;;;;;;;7.97;6.82;;;18.70;50.60;;;;;;5051731;28;20031;-37
2021/03/12 04:19:00;;;;;;;8.90;7.43;;;18.70;50.60;;;;;;5069405;28;20027;-37
2021/03/12 04:21:26;;;;;;;8.93;7.32;;;18.70;50.60;;;;;;5104135;28;20024;-37
2021/03/12 04:23:53;;;;;;;9.23;7.40;;;18.60;50.70;;;;;;5069139;28;20020;-37
2021/03/12 04:26:19;;;;;;;9.63;7.50;;;18.60;50.70;;;;;;5085818;28;20540;-37
2021/03/12 04:28:45;;;;;;;8.52;7.10;;;18.60;50.70;;;;;;5069222;28;20035;-37
2021/03/12 04:31:11;;;;;;;9.48;7.85;;;18.60;50.70;;;;;;5101205;28;20040;-37
2021/03/12 04:33:38;;;;;;;8.55;7.15;;;18.60;50.70;;;;;;5065435;28;20031;-37
2021/03/12 04:36:04;;;;;;;8.63;7.00;;;18.50;50.70;;;;;;5056527;28;20078;-36
2021/03/12 04:38:30;;;;;;;9.77;7.95;;;18.50;50.70;;;;;;5045271;28;20190;-37
2021/03/12 04:40:57;;;;;;;8.75;7.13;;;18.50;50.80;;;;;;5063376;28;20040;-37
2021/03/12 04:43:23;;;;;;;9.55;8.23;;;18.50;51.30;;;;;;5044768;28;20029;-37
2021/03/12 04:45:49;;;;;;;8.85;7.30;;;18.50;50.80;;;;;;5045133;28;20037;-37
2021/03/12 04:48:15;;;;;;;10.30;8.07;;;18.50;50.80;;;;;;5095927;28;20020;-37
2021/03/12 04:50:41;;;;;;;9.77;7.75;;;18.40;50.70;;;;;;5070443;28;20024;-37
2021/03/12 04:53:07;;;;;;;9.52;7.55;;;18.40;50.80;;;;;;5048781;28;20115;-37
2021/03/12 04:55:34;;;;;;;10.10;7.90;;;18.40;50.80;;;;;;5064762;28;20028;-37
2021/03/12 04:58:00;;;;;;;8.93;7.65;;;18.40;50.80;;;;;;5048759;28;20033;-37
2021/03/12 05:00:26;;;;;;;6.60;5.63;;;18.40;51.00;;;;;;5048459;28;20045;-37
2021/03/12 05:02:54;;;;;;;9.80;7.78;;;18.30;50.90;;;;;;5082999;28;20291;-37
2021/03/12 05:05:20;;;;;;;8.35;7.25;;;18.30;51.00;;;;;;5084635;28;20032;-37
2021/03/12 05:07:46;;;;;;;9.85;8.20;;;18.30;50.90;;;;;;5068407;28;20554;-36
2021/03/12 05:10:13;;;;;;;10.55;7.47;;;18.30;51.00;;;;;;5081355;28;20094;-37
2021/03/12 05:12:39;;;;;;;9.82;7.95;;;18.30;50.90;;;;;;5082862;28;20145;-37
2021/03/12 05:15:05;;;;;;;9.10;7.93;;;18.30;51.10;;;;;;5082460;28;20085;-37
2021/03/12 05:17:32;;;;;;;8.40;7.50;;;18.20;51.00;;;;;;5072471;28;20029;-37
2021/03/12 05:19:58;;;;;;;10.80;8.23;;;18.20;51.10;;;;;;5062656;28;20413;-37
2021/03/12 05:22:24;;;;;;;8.65;7.18;;;18.20;51.20;;;;;;5062734;28;20029;-37
2021/03/12 05:24:50;;;;;;;8.60;7.65;;;18.20;51.10;;;;;;5062289;28;20120;-38
2021/03/12 05:27:16;;;;;;;10.98;7.50;;;18.20;51.10;;;;;;5062563;28;20021;-37
2021/03/12 05:29:43;;;;;;;8.70;7.47;;;18.20;51.20;;;;;;5062589;28;20028;-37
2021/03/12 05:32:09;;;;;;;9.55;8.10;;;18.20;51.20;;;;;;5062575;28;20029;-37
2021/03/12 05:34:35;;;;;;;8.52;7.63;;;18.10;51.20;;;;;;5060834;28;20476;-37
2021/03/12 05:37:01;;;;;;;9.70;7.50;;;18.10;51.20;;;;;;5053428;28;20021;-37
2021/03/12 05:39:27;;;;;;;8.50;7.30;;;18.10;51.40;;;;;;5042356;28;20037;-37
2021/03/12 05:41:53;;;;;;;9.27;7.18;;;18.10;51.30;;;;;;5042524;28;20036;-37
2021/03/12 05:44:19;;;;;;;9.18;7.25;;;18.00;51.30;;;;;;5040791;28;20053;-37
2021/03/12 05:46:46;;;;;;;8.18;7.18;;;18.00;51.30;;;;;;5074426;28;20028;-37
2021/03/12 05:49:13;;;;;;;8.15;7.35;;;18.00;51.20;;;;;;5060694;28;20032;-37
2021/03/12 05:51:39;;;;;;;9.23;7.35;;;18.00;51.40;;;;;;5061772;28;20029;-37
2021/03/12 05:54:06;;;;;;;8.98;7.50;;;17.90;51.30;;;;;;5060633;28;20025;-37
2021/03/12 05:56:33;;;;;;;7.85;7.05;;;17.90;51.50;;;;;;5061918;28;20146;-37
2021/03/12 05:58:59;;;;;;;9.77;7.28;;;17.90;51.40;;;;;;5062341;28;20036;-37
2021/03/12 06:01:33;;;;;;;8.45;7.55;;;17.90;51.40;;;;;;5061988;28;20039;-37
2021/03/12 06:03:59;;;;;;;8.65;7.30;;;17.90;51.50;;;;;;5061756;28;20107;-36
2021/03/12 06:06:26;;;;;;;8.75;7.65;;;17.90;51.50;;;;;;5060392;28;20074;-37
2021/03/12 06:08:53;;;;;;;8.90;7.57;;;17.80;51.60;;;;;;5067705;28;20063;-37
2021/03/12 06:11:19;;;;;;;8.15;7.28;;;17.80;51.70;;;;;;5081912;28;20045;-37
2021/03/12 06:13:53;;;;;;;9.80;7.78;;;17.80;51.70;;;;;;5082008;28;20489;-37
2021/03/12 06:16:27;;;;;;;8.80;7.50;;;17.80;51.60;;;;;;5082122;28;20098;-36
2021/03/12 06:19:18;;;;;;;9.95;8.18;;;17.80;51.70;;;;;;5083738;28;20094;-37
2021/03/12 06:21:47;;;;;;;10.77;7.57;;;17.80;51.70;;;;;;5102132;28;20031;-37
2021/03/12 06:24:33;;;;;;;8.18;7.30;;;17.80;51.70;;;;;;5084018;28;20040;-37
2021/03/12 06:27:00;;;;;;;8.27;7.18;;;17.70;51.70;;;;;;5101761;28;20536;-37
2021/03/12 06:29:38;;;;;;;8.18;7.18;;;17.70;51.70;;;;;;5102156;28;20043;-37
2021/03/12 06:32:05;;;;;;;8.98;7.55;;;17.70;51.80;;;;;;5092090;28;20040;-37
2021/03/12 06:34:32;;;;;;;8.70;7.65;;;17.70;51.70;;;;;;5081578;28;20088;-37
2021/03/12 06:36:58;;;;;;;8.80;7.60;;;17.70;51.90;;;;;;5081477;28;20121;-37
2021/03/12 06:39:40;;;;;;;9.60;7.90;;;17.70;51.90;;;;;;5081574;28;20305;-37
2021/03/12 06:42:10;;;;;;;9.05;7.65;;;17.60;51.90;;;;;;5073144;28;20024;-37
2021/03/12 06:44:37;;;;;;;8.25;7.32;;;17.60;52.00;;;;;;5102024;28;20631;-37
2021/03/12 06:47:04;;;;;;;9.90;7.70;;;17.50;52.00;;;;;;5077103;28;20025;-37
2021/03/12 06:49:30;;;;;;;9.50;7.78;;;17.60;52.10;;;;;;5081471;28;20081;-37
2021/03/12 06:51:58;;;;;;;9.82;7.53;;;17.50;52.00;;;;;;5075371;28;20035;-37
2021/03/12 06:54:25;;;;;;;9.13;7.97;;;17.50;52.00;;;;;;5043672;28;20059;-38
2021/03/12 06:56:52;;;;;;;9.82;8.30;;;17.50;52.10;;;;;;5061306;28;20021;-37
2021/03/12 06:59:31;;;;;;;9.97;7.73;;;17.50;52.20;;;;;;5067741;28;20074;-37
2021/03/12 07:02:07;;;;;;;8.80;7.25;;;17.50;52.10;;;;;;5070621;28;20098;-37
2021/03/12 07:04:34;;;;;;;9.35;7.82;;;17.40;52.30;;;;;;5081381;28;20040;-37
2021/03/12 07:07:00;;;;;;;8.80;7.60;;;17.40;52.20;;;;;;5082369;28;20025;-37
2021/03/12 07:09:27;;;;;;;9.57;7.68;;;17.40;52.40;;;;;;5085145;28;20055;-37
2021/03/12 07:12:01;;;;;;;10.20;7.85;;;17.40;52.30;;;;;;5085081;28;20036;-37
2021/03/12 07:14:28;;;;;;;9.18;7.93;;;17.30;52.40;;;;;;5085007;28;20481;-37
2021/03/12 07:16:54;;;;;;;9.20;7.18;;;17.30;52.40;;;;;;5089828;28;20378;-37
2021/03/12 07:19:20;;;;;;;9.60;8.52;;;17.30;52.30;;;;;;5105146;28;20040;-37
2021/03/12 07:21:48;;;;;;;10.18;8.18;;;17.30;52.40;;;;;;5105202;28;20028;-37
2021/03/12 07:24:16;;;;;;;12.55;8.38;;;17.30;52.40;;;;;;5105239;28;20020;-37
2021/03/12 07:26:51;;;;;;;9.93;8.23;;;17.20;52.50;;;;;;5104978;28;20028;-36
2021/03/12 07:29:22;;;;;;;10.57;8.38;;;17.30;53.20;;;;;;5104979;28;20028;-37
2021/03/12 07:31:51;;;;;;;9.05;7.70;;;17.20;52.50;;;;;;5079188;28;20040;-36
2021/03/12 07:34:21;;;;;;;8.60;7.70;;;17.20;52.50;;;;;;5065143;28;20810;-37
2021/03/12 07:36:49;;;;;;;10.43;8.13;;;17.20;52.50;;;;;;5056249;28;20025;-36
2021/03/12 07:39:27;;;;;;;9.57;7.95;;;17.20;52.60;;;;;;5064617;28;20025;-37
2021/03/12 07:41:53;;;;;;;8.82;7.55;;;17.20;52.60;;;;;;5046632;28;20052;-37
2021/03/12 07:44:21;;;;;;;9.30;7.78;;;17.10;52.60;;;;;;5065167;28;20033;-37
2021/03/12 07:46:50;;;;;;;;;;;17.10;52.70;;;;;;5088962;28;20028;-37
2021/03/12 07:49:29;;;;;;;9.80;7.68;;;17.10;52.80;;;;;;5104692;28;19908;-37
2021/03/12 07:51:55;;;;;;;10.05;8.10;;;17.10;52.70;;;;;;5104632;28;20024;-37
2021/03/12 07:54:40;;;;;;;8.70;7.80;;;17.00;52.80;;;;;;5104706;28;20035;-36
2021/03/12 07:57:10;;;;;;;8.80;7.50;;;17.00;52.80;;;;;;5104212;28;20651;-36
2021/03/12 07:59:49;;;;;;;10.65;8.50;;;17.00;52.70;;;;;;5104689;28;20089;-37
2021/03/12 08:02:18;;;;;;;10.50;8.25;;;17.00;53.00;;;;;;5092833;28;20021;-36
2021/03/12 08:04:46;;;;;;;9.35;7.63;;;17.00;52.90;;;;;;5066168;28;20028;-36
2021/03/12 08:07:18;;;;;;;9.90;8.30;;;17.00;52.80;;;;;;5083989;28;20032;-37
2021/03/12 08:09:49;;;;;;;10.43;8.13;;;16.90;53.20;;;;;;5083792;28;20045;-36
2021/03/12 08:12:34;;;;;;;9.73;7.80;;;16.90;52.90;;;;;;5084363;28;20062;-37
2021/03/12 08:15:20;;;;;;;9.75;7.95;;;16.90;53.00;;;;;;5065915;28;20051;-36
2021/03/12 08:17:58;;;;;;;10.10;7.80;;;16.90;52.90;;;;;;5095968;28;20032;-41
2021/03/12 08:20:25;;;;;;;9.63;7.93;;;16.90;52.90;;;;;;5103970;28;20078;-36
2021/03/12 08:22:54;;;;;;;8.82;7.90;;;16.90;53.00;;;;;;5085624;28;20687;-37
2021/03/12 08:25:36;;;;;;;8.80;7.65;;;16.90;53.00;;;;;;5104045;28;20115;-37
2021/03/12 08:28:02;;;;;;;8.63;7.72;;;16.90;52.90;;;;;;5103838;28;20024;-36
2021/03/12 08:30:34;;;;;;;9.35;7.88;;;16.80;53.10;;;;;;5104174;28;20036;-37
2021/03/12 08:33:30;;;;;;;9.85;7.70;;;16.80;53.10;;;;;;5085747;28;20060;-37
2021/03/12 08:35:57;;;;;;;10.85;8.15;;;16.80;53.00;;;;;;5082591;28;20577;-37
2021/03/12 08:38:24;;;;;;;6.90;6.13;;;16.80;53.20;;;;;;5083441;28;20074;-36
2021/03/12 08:40:54;;;;;;;;;;;16.80;53.30;;;;;;5072644;28;20125;-37
2021/03/12 08:43:21;;;;;;;8.52;7.43;;;16.70;53.30;;;;;;5083029;28;20424;-37
2021/03/12 08:45:53;;;;;;;9.43;8.07;;;16.70;53.30;;;;;;5083542;28;20040;-36
2021/03/12 08:48:27;;;;;;;8.90;7.68;;;16.70;53.40;;;;;;5099978;28;20117;-36
2021/03/12 08:50:57;;;;;;;8.77;7.72;;;16.70;53.30;;;;;;5103581;28;20020;-37
2021/03/12 08:53:28;;;;;;;8.90;7.85;;;16.70;53.40;;;;;;5103615;28;20133;-36
2021/03/12 08:55:55;;;;;;;9.05;7.75;;;16.60;53.30;;;;;;5103531;28;20036;-37
2021/03/12 08:58:21;;;;;;;9.85;7.75;;;16.60;53.30;;;;;;5064609;28;20083;-37
2021/03/12 09:00:52;;;;;;;9.35;7.47;;;16.60;53.40;;;;;;5103499;28;20399;-37
2021/03/12 09:03:22;;;;;;;11.10;7.22;;;16.60;53.40;;;;;;5063144;28;20036;-36
2021/03/12 09:05:50;;;;;;;10.35;8.18;;;16.60;53.30;;;;;;5062865;28;20071;-37
2021/03/12 09:08:22;;;;;;;9.13;7.97;;;16.50;53.40;;;;;;5062775;28;20085;-37
2021/03/12 09:10:49;;;;;;;10.38;8.25;;;16.60;53.40;;;;;;5045842;28;20037;-36
2021/03/12 09:13:28;;;;;;;8.55;7.63;;;16.50;53.40;;;;;;5062820;28;20021;-36
2021/03/12 09:15:55;;;;;;;8.93;7.57;;;16.50;53.40;;;;;;5045763;28;20021;-37
2021/03/12 09:18:22;;;;;;;11.15;8.73;;;16.50;53.50;;;;;;5097014;28;20636;-36
2021/03/12 09:20:56;;;;;;;8.68;7.53;;;16.50;54.00;;;;;;5102860;28;20039;-36
2021/03/12 09:23:40;;;;;;;9.23;7.93;;;16.50;53.50;;;;;;5084755;28;20038;-37
2021/03/12 09:26:17;;;;;;;9.10;7.57;;;16.50;53.50;;;;;;5103027;28;20082;-36
2021/03/12 09:28:44;;;;;;;9.10;7.32;;;16.40;53.60;;;;;;5102701;28;20024;-37
2021/03/12 09:31:12;;;;;;;8.50;7.60;;;16.40;53.60;;;;;;5099836;28;20032;-37
2021/03/12 09:33:41;;;;;;;9.02;7.90;;;16.40;53.60;;;;;;5080341;28;20037;-36
2021/03/12 09:36:39;;;;;;;8.05;7.25;;;16.40;53.60;;;;;;5072674;28;20017;-37
2021/03/12 09:39:20;;;;;;;9.23;7.78;;;16.40;53.60;;;;;;5082204;28;20032;-37
2021/03/12 09:41:56;;;;;;;8.85;7.70;;;16.30;53.60;;;;;;5082318;28;20035;-37
2021/03/12 09:44:24;;;;;;;9.90;7.88;;;16.30;53.70;;;;;;5082564;28;20066;-37
2021/03/12 09:47:19;;;;;;;8.35;7.43;;;16.30;53.70;;;;;;5086929;28;20032;-37
2021/03/12 09:49:46;;;;;;;8.50;7.10;;;16.30;53.80;;;;;;5052964;28;20040;-36
2021/03/12 09:52:13;;;;;;;8.73;7.15;;;16.30;53.80;;;;;;5044118;28;20088;-36
2021/03/12 09:54:42;;;;;;;9.30;8.02;;;16.30;53.80;;;;;;5044477;28;20088;-37
2021/03/12 09:57:09;;;;;;;8.40;7.50;;;16.20;53.80;;;;;;5028208;28;20033;-37
2021/03/12 09:59:37;;;;;;;8.40;7.07;;;16.20;53.80;;;;;;5044233;28;20037;-37
2021/03/12 10:02:07;;;;;;;10.05;7.90;;;16.20;53.80;;;;;;5054217;28;20057;-36
2021/03/12 10:04:41;;;;;;;10.77;8.40;;;16.20;53.80;;;;;;5081955;28;20058;-37
2021/03/12 10:07:13;;;;;;;9.30;7.35;;;16.20;53.80;;;;;;5082334;28;20029;-36
2021/03/12 10:09:41;;;;;;;9.57;7.97;;;16.20;53.80;;;;;;5081800;28;20074;-37
2021/03/12 10:12:17;;;;;;;;;;;16.20;53.80;;;;;;5082545;28;20370;-36
2021/03/12 10:14:44;;;;;;;9.77;7.28;;;16.10;53.80;;;;;;5081988;28;19923;-36
2021/03/12 10:17:13;;;;;;;;;;;16.10;54.00;;;;;;5090059;28;20107;-37
2021/03/12 10:20:01;;;;;;;10.43;7.70;;;16.00;53.90;;;;;;5101953;28;19916;-37
2021/03/12 10:22:34;;;;;;;7.93;6.88;;;16.00;54.00;;;;;;5102245;28;20020;-37
2021/03/12 10:25:27;;;;;;;9.43;7.95;;;16.00;54.10;;;;;;5085201;28;20028;-36
2021/03/12 10:27:55;;;;;;;8.77;7.10;;;16.00;54.00;;;;;;5091073;28;20036;-36
2021/03/12 10:30:29;;;;;;;8.15;7.15;;;16.00;54.20;;;;;;5101924;28;20024;-36
2021/03/12 10:32:56;;;;;;;7.90;7.10;;;16.00;54.10;;;;;;5085125;28;20029;-36
2021/03/12 10:35:27;;;;;;;9.30;7.68;;;16.00;54.20;;;;;;5076277;28;20024;-36
2021/03/12 10:37:56;;;;;;;8.18;7.30;;;15.90;54.10;;;;;;5069498;28;20033;-37
2021/03/12 10:40:22;;;;;;;8.73;7.20;;;15.90;54.20;;;;;;5063566;28;20063;-36
2021/03/12 10:42:49;;;;;;;9.63;7.50;;;16.00;54.10;;;;;;5066624;28;20081;-36
2021/03/12 10:45:29;;;;;;;9.02;6.75;;;15.90;54.10;;;;;;5085822;28;20028;-37
2021/03/12 10:47:56;;;;;;;8.35;7.32;;;15.90;54.10;;;;;;5086015;28;20025;-37
2021/03/12 10:50:26;;;;;;;10.13;8.55;;;15.90;54.20;;;;;;5085354;28;20028;-37
2021/03/12 10:53:02;;;;;;;9.10;7.57;;;15.90;54.50;;;;;;5085481;28;20036;-36
2021/03/12 10:55:32;;;;;;;10.60;7.20;;;15.90;54.20;;;;;;5085721;28;20059;-37
2021/03/12 10:58:00;;;;;;;8.85;7.75;;;15.90;54.10;;;;;;5096640;28;20071;-36
2021/03/12 11:00:27;;;;;;;10.15;7.72;;;15.90;54.20;;;;;;5087697;28;20028;-36
2021/03/12 11:02:56;;;;;;;;;;;15.80;54.10;;;;;;5089244;28;20036;-36
2021/03/12 11:05:22;;;;;;;8.85;6.72;;;15.80;54.10;;;;;;5085448;28;19909;-36
2021/03/12 11:07:51;;;;;;;9.10;7.45;;;15.80;54.20;;;;;;5085426;28;20198;-36
2021/03/12 11:10:17;;;;;;;9.93;8.13;;;15.80;54.30;;;;;;5084770;28;20053;-36
2021/03/12 11:12:48;;;;;;;9.65;7.53;;;15.80;54.20;;;;;;5085327;28;20035;-36
2021/03/12 11:15:17;;;;;;;8.85;7.75;;;15.70;54.30;;;;;;5067862;28;20481;-37
2021/03/12 11:17:47;;;;;;;8.30;7.43;;;15.70;54.30;;;;;;5097214;28;20047;-36
2021/03/12 11:20:19;;;;;;;8.85;7.55;;;15.80;54.30;;;;;;5105101;28;20048;-36
2021/03/12 11:22:45;;;;;;;8.77;7.35;;;15.70;54.30;;;;;;5087229;28;20398;-36
2021/03/12 11:25:12;;;;;;;10.27;7.77;;;15.70;54.20;;;;;;5105456;28;20558;-36
2021/03/12 11:27:38;;;;;;;10.10;7.43;;;15.70;54.30;;;;;;5105580;28;20283;-36
2021/03/12 11:30:07;;;;;;;8.98;7.57;;;15.70;54.40;;;;;;5105232;28;20025;-36
2021/03/12 11:32:36;;;;;;;9.73;7.07;;;15.70;54.30;;;;;;5090985;28;20058;-36
2021/03/12 11:35:03;;;;;;;8.48;7.57;;;15.70;54.30;;;;;;5083534;28;20028;-36
2021/03/12 11:37:29;;;;;;;9.00;7.57;;;15.70;54.30;;;;;;5074873;28;20039;-36
2021/03/12 11:39:55;;;;;;;8.52;6.80;;;15.70;54.30;;;;;;5084595;28;20033;-36
2021/03/12 11:42:22;;;;;;;8.55;7.15;;;15.70;54.20;;;;;;5085033;28;20025;-36
2021/03/12 11:44:48;;;;;;;8.68;7.57;;;15.60;54.20;;;;;;5066950;28;20136;-37
2021/03/12 11:47:14;;;;;;;10.50;7.90;;;15.60;54.30;;;;;;5074591;28;20028;-36
2021/03/12 11:49:45;;;;;;;9.48;7.07;;;15.60;54.30;;;;;;5104813;28;20073;-36
2021/03/12 11:52:12;;;;;;;8.75;7.10;;;15.60;54.20;;;;;;5104760;28;20024;-36
2021/03/12 11:54:38;;;;;;;9.90;7.60;;;15.60;54.30;;;;;;5101704;28;20032;-36
2021/03/12 11:57:04;;;;;;;8.98;7.25;;;15.60;54.30;;;;;;5104865;28;20050;-36
2021/03/12 11:59:31;;;;;;;9.85;7.65;;;15.50;54.20;;;;;;5104600;28;20093;-36
2021/03/12 12:01:59;;;;;;;8.77;7.38;;;15.50;54.40;;;;;;5095646;28;20020;-36
2021/03/12 12:04:25;;;;;;;9.25;7.18;;;15.50;54.40;;;;;;5084351;28;20025;-37
2021/03/12 12:06:51;;;;;;;8.73;7.05;;;15.50;54.40;;;;;;5084411;28;20023;-36
2021/03/12 12:09:17;;;;;;;8.07;6.85;;;15.50;54.50;;;;;;5084257;28;20127;-36
2021/03/12 12:11:43;;;;;;;9.43;8.15;;;15.50;54.50;;;;;;5084003;28;20035;-36
2021/03/12 12:14:10;;;;;;;10.85;7.22;;;15.50;54.40;;;;;;5084354;28;20017;-36
2021/03/12 12:16:36;;;;;;;8.88;7.00;;;15.50;54.40;;;;;;5086995;28;20025;-36
2021/03/12 12:19:07;;;;;;;7.90;7.03;;;15.50;54.60;;;;;;5104397;28;20024;-36
2021/03/12 12:21:34;;;;;;;9.18;7.18;;;15.40;54.40;;;;;;5103951;28;20035;-36
2021/03/12 12:24:00;;;;;;;8.65;7.18;;;15.40;54.50;;;;;;5104371;28;20020;-36
2021/03/12 12:26:27;;;;;;;8.40;7.32;;;15.40;54.60;;;;;;5104430;28;20058;-36
2021/03/12 12:28:53;;;;;;;11.30;8.55;;;15.40;54.60;;;;;;5104235;28;20112;-35
2021/03/12 12:31:19;;;;;;;8.98;7.35;;;15.30;54.50;;;;;;5100147;28;20032;-36
2021/03/12 12:33:45;;;;;;;8.57;6.80;;;15.30;54.50;;;;;;5065776;28;20078;-36
2021/03/12 12:36:12;;;;;;;10.43;7.97;;;15.40;54.60;;;;;;5076894;28;20029;-36
2021/03/12 12:38:38;;;;;;;9.10;7.10;;;15.30;54.50;;;;;;5083506;28;20036;-36
2021/03/12 12:41:04;;;;;;;8.10;6.83;;;15.30;54.60;;;;;;5103592;28;20054;-36
2021/03/12 12:43:30;;;;;;;8.80;7.13;;;15.30;54.60;;;;;;5103835;28;20020;-36
2021/03/12 12:45:57;;;;;;;8.90;7.13;;;15.30;54.60;;;;;;5104027;28;20057;-36
2021/03/12 12:48:23;;;;;;;9.80;7.63;;;15.30;54.50;;;;;;5086203;28;20024;-36
2021/03/12 12:50:49;;;;;;;9.52;7.32;;;15.30;54.60;;;;;;5083071;28;20032;-36
2021/03/12 12:53:15;;;;;;;9.38;7.30;;;15.30;54.60;;;;;;5083572;28;20025;-36
2021/03/12 12:55:42;;;;;;;8.80;7.10;;;15.30;54.60;;;;;;5083535;28;20033;-36